createdAt,value
2022-07-31T00:00:24.035Z,5.78
2022-07-31T00:02:52.235Z,8.98
2022-07-31T00:05:19.848Z,6.43
2022-07-31T00:07:47.406Z,7.07
2022-07-31T00:10:15.167Z,5.93
2022-07-31T00:12:44.095Z,8.13
2022-07-31T00:15:12.703Z,6.53
2022-07-31T00:17:41.338Z,6.63
2022-07-31T00:20:13.252Z,10.20
2022-07-31T00:22:40.904Z,7.25
2022-07-31T00:25:09.887Z,7.28
2022-07-31T00:27:37.487Z,6.25
2022-07-31T00:30:08.082Z,10.23
2022-07-31T00:32:35.683Z,6.70
2022-07-31T00:35:03.280Z,6.88
2022-07-31T00:37:30.857Z,8.85
2022-07-31T00:39:58.470Z,9.85
2022-07-31T00:42:27.482Z,7.18
2022-07-31T00:44:55.141Z,8.20
2022-07-31T00:47:25.569Z,6.85
2022-07-31T00:49:54.184Z,6.68
2022-07-31T00:52:21.896Z,6.03
2022-07-31T00:54:49.604Z,6.45
2022-07-31T00:57:17.224Z,7.30
2022-07-31T00:59:44.844Z,8.63
2022-07-31T05:02:15.097Z,14.45
2022-07-31T05:04:42.776Z,12.23
2022-07-31T05:07:10.454Z,16.88
2022-07-31T05:09:38.048Z,10.60
2022-07-31T05:12:06.733Z,15.13
2022-07-31T05:14:34.621Z,10.98
2022-07-31T05:17:02.262Z,14.10
2022-07-31T05:19:31.189Z,10.68
2022-07-31T05:22:02.325Z,11.77
2022-07-31T05:24:33.425Z,11.43
2022-07-31T05:27:02.467Z,12.45
2022-07-31T05:29:30.255Z,10.00
2022-07-31T05:32:00.079Z,8.63
2022-07-31T05:34:30.629Z,9.93
2022-07-31T05:37:01.385Z,10.20
2022-07-31T05:39:29.556Z,8.85
2022-07-31T05:41:57.213Z,8.23
2022-07-31T05:44:24.973Z,13.65
2022-07-31T05:49:19.837Z,8.55
2022-07-31T05:51:47.621Z,9.13
2022-07-31T05:54:17.508Z,10.93
2022-07-31T05:56:45.116Z,10.25
2022-07-31T05:59:12.715Z,6.72
2022-07-31T06:01:40.437Z,8.38
2022-07-31T06:04:08.124Z,7.70
2022-07-31T06:06:35.808Z,7.82
2022-07-31T06:09:04.950Z,7.72
2022-07-31T06:11:34.169Z,7.53
2022-07-31T06:14:02.459Z,7.25
2022-07-31T06:16:30.439Z,9.32
2022-07-31T06:18:58.315Z,8.88
2022-07-31T06:21:30.430Z,8.60
2022-07-31T06:23:58.500Z,7.68
2022-07-31T06:26:26.797Z,7.07
2022-07-31T06:28:56.866Z,9.45
2022-07-31T06:31:24.614Z,7.32
2022-07-31T06:33:52.640Z,8.77
2022-07-31T06:36:20.753Z,6.90
2022-07-31T06:38:48.446Z,6.82
2022-07-31T06:41:36.482Z,6.07
2022-07-31T06:44:05.691Z,6.05
2022-07-31T06:46:33.576Z,8.48
2022-07-31T06:49:03.545Z,5.60
2022-07-31T06:51:36.110Z,6.25
2022-07-31T06:54:07.238Z,9.50
2022-07-31T06:56:39.037Z,5.85
2022-07-31T06:59:08.308Z,6.82
2022-07-31T07:01:36.387Z,9.57
2022-07-31T07:04:04.336Z,7.85
2022-07-31T07:06:33.067Z,6.05
2022-07-31T07:09:00.886Z,6.30
2022-07-31T07:11:28.650Z,5.68
2022-07-31T07:13:56.281Z,7.78
2022-07-31T07:16:25.221Z,6.03
2022-07-31T07:18:53.088Z,7.93
2022-07-31T07:21:23.680Z,6.65
2022-07-31T07:23:51.438Z,8.18
2022-07-31T07:26:19.823Z,6.90
2022-07-31T07:28:47.401Z,5.43
2022-07-31T07:31:15.258Z,5.65
2022-07-31T07:33:45.738Z,7.88
2022-07-31T07:36:24.003Z,4.57
2022-07-31T07:38:56.055Z,10.02
2022-07-31T07:41:24.896Z,5.78
2022-07-31T07:43:53.603Z,5.50
2022-07-31T07:46:22.397Z,4.85
2022-07-31T07:48:51.977Z,7.78
2022-07-31T07:51:21.147Z,6.78
2022-07-31T07:53:49.321Z,5.55
2022-07-31T07:56:17.454Z,4.82
2022-07-31T07:58:45.095Z,4.93
2022-07-31T08:01:13.086Z,5.15
2022-07-31T08:03:48.168Z,5.20
2022-07-31T08:06:20.068Z,5.97
2022-07-31T08:08:47.735Z,4.65
2022-07-31T08:11:17.145Z,8.48
2022-07-31T08:13:50.250Z,7.80
2022-07-31T08:16:19.398Z,12.40
2022-07-31T08:18:47.099Z,12.60
2022-07-31T08:21:15.096Z,8.27
2022-07-31T08:23:44.177Z,6.00
2022-07-31T08:26:13.803Z,4.78
2022-07-31T08:28:50.295Z,3.92
2022-07-31T08:31:19.437Z,6.43
2022-07-31T08:33:47.393Z,4.40
2022-07-31T08:36:15.030Z,4.93
2022-07-31T08:38:44.123Z,6.53
2022-07-31T08:41:13.721Z,6.15
2022-07-31T08:44:00.066Z,5.05
2022-07-31T08:46:29.939Z,6.13
2022-07-31T08:48:58.162Z,5.30
2022-07-31T08:51:26.566Z,5.57
2022-07-31T08:53:56.162Z,4.90
2022-07-31T08:56:25.644Z,7.30
2022-07-31T08:58:53.392Z,4.47
2022-07-31T09:01:21.131Z,5.13
2022-07-31T09:03:48.822Z,7.00
2022-07-31T09:06:16.460Z,7.10
2022-07-31T09:08:44.033Z,11.60
2022-07-31T09:11:14.523Z,8.98
2022-07-31T09:14:01.473Z,6.15
2022-07-31T09:16:31.782Z,4.82
2022-07-31T09:19:00.622Z,6.95
2022-07-31T09:21:38.940Z,4.45
2022-07-31T09:24:10.097Z,4.40
2022-07-31T09:26:40.827Z,4.63
2022-07-31T09:29:11.750Z,5.35
2022-07-31T09:31:39.731Z,4.75
2022-07-31T09:34:07.424Z,5.45
2022-07-31T09:36:35.066Z,3.90
2022-07-31T09:39:05.385Z,3.67
2022-07-31T09:42:00.232Z,3.95
2022-07-31T09:44:25.371Z,3.63
2022-07-31T09:46:53.959Z,6.97
2022-07-31T09:49:31.541Z,3.75
2022-07-31T09:51:59.361Z,4.65
2022-07-31T09:54:29.675Z,5.63
2022-07-31T09:56:58.190Z,6.38
2022-07-31T09:59:27.117Z,3.80
2022-07-31T10:01:56.164Z,4.05
2022-07-31T10:04:24.237Z,3.45
2022-07-31T10:06:52.955Z,3.30
2022-07-31T10:09:22.222Z,3.42
2022-07-31T10:11:52.252Z,5.82
2022-07-31T10:14:23.502Z,3.55
2022-07-31T10:16:57.346Z,3.67
2022-07-31T10:19:32.494Z,3.65
2022-07-31T10:22:04.493Z,4.63
2022-07-31T10:24:33.977Z,5.97
2022-07-31T10:27:08.061Z,3.90
2022-07-31T10:29:39.064Z,7.28
2022-07-31T10:32:09.022Z,3.40
2022-07-31T10:34:37.001Z,5.18
2022-07-31T10:37:11.158Z,3.30
2022-07-31T10:39:48.141Z,3.88
2022-07-31T10:42:27.867Z,3.10
2022-07-31T10:45:04.862Z,4.20
2022-07-31T10:47:33.843Z,6.82
2022-07-31T10:50:01.485Z,5.00
2022-07-31T10:52:30.482Z,4.20
2022-07-31T10:55:00.968Z,6.40
2022-07-31T10:57:30.204Z,7.20
2022-07-31T11:00:08.776Z,4.03
2022-07-31T11:02:38.134Z,3.38
2022-07-31T11:05:10.501Z,5.95
2022-07-31T11:07:38.077Z,4.60
2022-07-31T11:10:17.376Z,4.57
2022-07-31T11:12:45.463Z,4.28
2022-07-31T11:15:24.382Z,4.03
2022-07-31T11:18:22.528Z,5.07
2022-07-31T11:20:46.536Z,5.90
2022-07-31T11:23:16.603Z,4.25
2022-07-31T11:25:45.937Z,5.68
2022-07-31T11:28:15.995Z,5.90
2022-07-31T11:30:52.150Z,4.82
2022-07-31T11:33:41.960Z,4.25
2022-07-31T11:36:12.490Z,3.63
2022-07-31T11:38:42.234Z,3.17
2022-07-31T11:41:12.084Z,3.10
2022-07-31T11:43:45.345Z,4.07
2022-07-31T11:46:13.462Z,3.97
2022-07-31T11:48:45.412Z,5.10
2022-07-31T11:51:19.389Z,5.35
2022-07-31T11:53:56.546Z,4.25
2022-07-31T11:56:27.889Z,3.28
2022-07-31T11:58:57.145Z,5.05
2022-07-31T12:01:29.245Z,3.80
2022-07-31T12:04:07.657Z,6.55
2022-07-31T12:06:37.034Z,6.60
2022-07-31T12:09:05.449Z,4.05
2022-07-31T12:11:33.137Z,3.13
2022-07-31T12:14:00.951Z,4.68
2022-07-31T12:16:28.532Z,5.05
2022-07-31T12:18:59.702Z,2.83
2022-07-31T12:21:31.657Z,3.25
2022-07-31T12:23:59.327Z,4.78
2022-07-31T12:26:28.443Z,4.03
2022-07-31T12:29:00.389Z,4.18
2022-07-31T12:31:29.203Z,3.63
2022-07-31T12:33:58.190Z,4.32
2022-07-31T12:36:25.809Z,3.03
2022-07-31T12:39:00.219Z,5.68
2022-07-31T12:41:28.264Z,4.07
2022-07-31T12:43:55.876Z,4.03
2022-07-31T12:46:35.509Z,7.18
2022-07-31T12:49:04.720Z,3.78
2022-07-31T12:51:46.313Z,3.80
2022-07-31T12:54:15.649Z,5.03
2022-07-31T12:56:43.728Z,3.05
2022-07-31T12:59:11.560Z,5.57
2022-07-31T13:01:39.998Z,4.65
2022-07-31T13:04:18.192Z,3.80
2022-07-31T13:06:50.999Z,3.88
2022-07-31T13:09:18.940Z,4.95
2022-07-31T13:11:48.471Z,7.00
2022-07-31T13:14:16.760Z,3.40
2022-07-31T13:16:44.421Z,3.47
2022-07-31T13:19:13.897Z,5.20
2022-07-31T13:21:49.421Z,6.70
2022-07-31T13:24:19.010Z,4.10
2022-07-31T13:26:47.102Z,3.35
2022-07-31T13:29:16.116Z,4.13
2022-07-31T13:31:44.282Z,4.32
2022-07-31T13:34:13.757Z,5.05
2022-07-31T13:36:41.361Z,3.40
2022-07-31T13:39:09.039Z,5.88
2022-07-31T13:41:39.051Z,4.60
2022-07-31T13:44:07.256Z,3.60
2022-07-31T13:46:35.391Z,4.65
2022-07-31T13:49:07.965Z,4.50
2022-07-31T13:51:37.683Z,13.05
2022-07-31T13:54:05.569Z,6.20
2022-07-31T13:56:34.120Z,5.72
2022-07-31T13:59:07.113Z,5.65
2022-07-31T14:02:04.280Z,4.68
2022-07-31T14:04:23.465Z,4.65
2022-07-31T14:06:52.858Z,4.13
2022-07-31T14:09:20.489Z,4.88
2022-07-31T14:11:48.269Z,3.42
2022-07-31T14:14:22.326Z,5.03
2022-07-31T14:16:51.338Z,4.93
2022-07-31T14:19:18.928Z,5.85
2022-07-31T14:21:56.214Z,5.05
2022-07-31T14:24:26.687Z,5.15
2022-07-31T14:26:54.368Z,6.38
2022-07-31T14:29:21.956Z,4.63
2022-07-31T14:31:49.727Z,4.18
2022-07-31T14:34:17.277Z,5.30
2022-07-31T14:36:44.833Z,4.45
2022-07-31T14:39:12.442Z,4.63
2022-07-31T14:41:41.443Z,6.00
2022-07-31T14:44:09.136Z,4.32
2022-07-31T14:46:36.668Z,3.53
2022-07-31T14:49:04.559Z,4.68
2022-07-31T14:51:32.241Z,5.13
2022-07-31T14:54:00.472Z,5.45
2022-07-31T14:56:58.454Z,5.20
2022-07-31T14:59:17.289Z,7.35
2022-07-31T15:01:44.914Z,4.15
2022-07-31T15:04:12.547Z,4.85
2022-07-31T15:06:56.109Z,4.07
2022-07-31T15:09:27.780Z,4.07
2022-07-31T15:11:59.708Z,4.47
2022-07-31T15:14:30.330Z,5.80
2022-07-31T15:16:58.096Z,4.13
2022-07-31T15:19:25.727Z,5.43
2022-07-31T15:22:16.357Z,4.32
2022-07-31T15:24:48.216Z,4.03
2022-07-31T15:27:17.763Z,3.08
2022-07-31T15:30:05.083Z,4.28
2022-07-31T15:32:34.811Z,4.07
2022-07-31T15:35:02.652Z,5.78
2022-07-31T15:37:30.429Z,3.40
2022-07-31T15:40:02.313Z,3.60
2022-07-31T15:42:31.658Z,2.95
2022-07-31T15:45:00.901Z,4.95
2022-07-31T15:47:28.476Z,3.70
2022-07-31T15:49:56.151Z,4.22
2022-07-31T15:52:23.718Z,2.65
2022-07-31T15:54:52.552Z,3.88
2022-07-31T15:57:20.600Z,3.42
2022-07-31T15:59:48.298Z,5.65
2022-07-31T16:02:17.825Z,5.13
2022-07-31T16:04:53.393Z,3.42
2022-07-31T16:08:31.809Z,7.05
2022-07-31T16:10:16.785Z,6.88
2022-07-31T16:12:45.981Z,5.15
2022-07-31T16:15:13.888Z,5.75
2022-07-31T16:17:43.074Z,7.00
2022-07-31T16:20:12.956Z,5.25
2022-07-31T16:22:52.553Z,7.03
2022-07-31T16:25:22.692Z,6.22
2022-07-31T16:27:50.469Z,7.50
2022-07-31T16:30:18.378Z,7.47
2022-07-31T16:32:47.389Z,4.20
2022-07-31T16:35:15.381Z,3.17
2022-07-31T16:37:51.039Z,2.55
2022-07-31T16:40:29.808Z,3.03
2022-07-31T16:43:00.589Z,4.70
2022-07-31T16:45:28.690Z,5.00
2022-07-31T16:47:57.663Z,4.30
2022-07-31T16:50:25.432Z,3.08
2022-07-31T16:52:55.091Z,4.15
2022-07-31T16:56:00.003Z,3.80
2022-07-31T16:58:11.809Z,3.40
2022-07-31T17:00:40.554Z,2.72
2022-07-31T17:03:58.643Z,3.28
2022-07-31T17:05:57.747Z,3.60
2022-07-31T17:08:25.480Z,3.47
2022-07-31T17:10:54.739Z,2.25
2022-07-31T17:13:23.405Z,3.88
2022-07-31T17:15:51.140Z,3.38
2022-07-31T17:18:24.835Z,3.83
2022-07-31T17:20:53.019Z,7.18
2022-07-31T17:23:42.998Z,3.38
2022-07-31T17:26:21.156Z,2.67
2022-07-31T17:28:50.760Z,5.65
2022-07-31T17:31:18.774Z,3.95
2022-07-31T17:33:58.566Z,6.32
2022-07-31T17:36:29.274Z,4.85
2022-07-31T17:38:57.129Z,6.57
2022-07-31T17:41:26.102Z,4.47
2022-07-31T17:43:54.506Z,5.10
2022-07-31T17:46:29.930Z,5.50
2022-07-31T17:49:04.616Z,3.10
2022-07-31T17:51:32.323Z,3.45
2022-07-31T17:54:00.008Z,2.83
2022-07-31T17:56:28.348Z,4.55
2022-07-31T17:59:03.611Z,3.72
2022-07-31T18:01:31.379Z,5.00
2022-07-31T18:03:58.998Z,3.42
2022-07-31T18:06:28.087Z,2.58
2022-07-31T18:08:55.738Z,5.68
2022-07-31T18:11:23.449Z,4.18
2022-07-31T18:13:55.308Z,4.38
2022-07-31T18:16:25.300Z,12.27
2022-07-31T18:18:54.625Z,8.02
2022-07-31T18:21:22.612Z,6.25
2022-07-31T18:23:51.528Z,6.97
2022-07-31T18:26:19.106Z,7.15
2022-07-31T18:28:46.679Z,6.80
2022-07-31T18:31:33.918Z,2.97
2022-07-31T18:34:02.756Z,6.93
2022-07-31T18:36:30.340Z,3.75
2022-07-31T18:38:59.273Z,4.38
2022-07-31T18:41:30.541Z,3.70
2022-07-31T18:44:00.546Z,5.13
2022-07-31T18:46:29.411Z,3.17
2022-07-31T18:48:57.709Z,2.92
2022-07-31T18:51:25.965Z,4.00
2022-07-31T18:53:54.860Z,5.55
2022-07-31T18:56:24.612Z,3.08
2022-07-31T18:58:52.989Z,6.28
2022-07-31T19:01:21.039Z,5.60
2022-07-31T19:03:48.761Z,4.20
2022-07-31T19:06:16.822Z,8.43
2022-07-31T19:08:44.916Z,4.45
2022-07-31T19:11:12.885Z,4.03
2022-07-31T19:13:41.983Z,4.82
2022-07-31T19:16:09.667Z,5.65
2022-07-31T19:18:50.176Z,5.45
2022-07-31T19:21:41.530Z,6.03
2022-07-31T19:24:08.542Z,4.40
2022-07-31T19:26:40.912Z,4.13
2022-07-31T19:29:10.338Z,3.47
2022-07-31T19:31:38.474Z,3.10
2022-07-31T19:34:06.146Z,3.53
2022-07-31T19:36:33.884Z,3.42
2022-07-31T19:39:01.714Z,3.15
2022-07-31T19:41:29.316Z,3.53
2022-07-31T19:43:56.939Z,6.40
2022-07-31T19:46:25.877Z,6.80
2022-07-31T19:48:53.680Z,4.47
2022-07-31T19:51:21.480Z,4.75
2022-07-31T19:53:49.298Z,8.57
2022-07-31T19:56:20.754Z,4.90
2022-07-31T19:58:49.968Z,6.35
2022-07-31T20:01:20.253Z,6.00
2022-07-31T20:03:50.141Z,3.70
2022-07-31T20:06:17.890Z,6.00
2022-07-31T20:08:45.579Z,3.83
2022-07-31T20:11:13.328Z,4.25
2022-07-31T20:13:41.252Z,4.95
2022-07-31T20:16:09.419Z,5.07
2022-07-31T20:18:37.088Z,7.05
2022-07-31T20:21:08.348Z,3.80
2022-07-31T20:23:38.140Z,3.63
2022-07-31T20:26:06.589Z,4.28
2022-07-31T20:28:34.250Z,7.28
2022-07-31T20:31:02.273Z,4.95
2022-07-31T20:33:29.908Z,5.63
2022-07-31T20:35:57.563Z,4.07
2022-07-31T20:38:26.792Z,5.35
2022-07-31T20:40:56.108Z,4.82
2022-07-31T20:43:24.915Z,3.63
2022-07-31T20:45:53.468Z,7.47
2022-07-31T20:48:23.885Z,3.33
2022-07-31T20:50:52.177Z,7.43
2022-07-31T20:53:20.819Z,6.60
2022-07-31T20:55:50.342Z,4.95
2022-07-31T20:58:18.045Z,4.70
2022-07-31T21:00:47.132Z,6.40
2022-07-31T21:03:15.030Z,8.18
2022-07-31T21:05:42.650Z,5.35
2022-07-31T21:08:10.547Z,6.05
2022-07-31T21:10:39.049Z,7.47
2022-07-31T21:13:07.985Z,5.18
2022-07-31T21:15:44.084Z,5.50
2022-07-31T21:18:12.849Z,4.40
2022-07-31T21:20:50.313Z,5.28
2022-07-31T21:23:22.649Z,5.65
2022-07-31T21:25:51.113Z,4.93
2022-07-31T21:28:21.329Z,4.63
2022-07-31T21:30:49.527Z,5.25
2022-07-31T21:33:18.334Z,4.25
2022-07-31T21:35:46.770Z,4.45
2022-07-31T21:38:15.603Z,4.45
2022-07-31T21:40:44.366Z,4.40
2022-07-31T21:43:15.454Z,5.85
2022-07-31T21:45:55.704Z,3.97
2022-07-31T21:48:27.435Z,4.32
2022-07-31T21:50:55.985Z,4.30
2022-07-31T21:53:24.714Z,6.47
2022-07-31T21:55:52.766Z,4.97
2022-07-31T21:58:20.712Z,4.25
2022-07-31T22:00:49.706Z,5.32
2022-07-31T22:03:17.362Z,4.82
2022-07-31T22:06:02.614Z,4.90
2022-07-31T22:08:30.494Z,3.45
2022-07-31T22:10:59.828Z,3.70
2022-07-31T22:13:27.717Z,4.68
2022-07-31T22:16:00.148Z,4.80
2022-07-31T22:18:29.539Z,4.97
2022-07-31T22:21:00.111Z,7.22
2022-07-31T22:23:29.434Z,5.32
2022-07-31T22:25:57.623Z,4.63
2022-07-31T22:28:26.737Z,3.13
2022-07-31T22:30:57.051Z,4.15
2022-07-31T22:33:25.487Z,3.80
2022-07-31T22:35:58.636Z,4.38
2022-07-31T22:38:30.121Z,5.20
2022-07-31T22:40:58.720Z,3.88
2022-07-31T22:44:11.457Z,3.47
2022-07-31T22:46:16.127Z,3.70
2022-07-31T22:48:45.872Z,4.38
2022-07-31T22:51:14.829Z,4.53
2022-07-31T22:53:43.156Z,4.97
2022-07-31T22:56:10.950Z,5.68
2022-07-31T22:58:38.590Z,4.47
